Green Rock, Illinois
Current Conditions -  °F | °C
As of 7:52 AM on Saturday 20 Dec 2014 (Local Time) from KMLI Reporting Station
Haze Haze  
Wind Chill: 25°   Ceiling: 4000
Heat Index: 30°   Visibility: 5mi
Dew Point: 25°   Wind: 5mph
Humidity: 82%   Direction: 100°E
Pressure: 30.24"   Gusts: NA
Location:  41.4426°N, 90.3628°W
Report Text: KMLI 201352Z 10004KT 5SM HZ BKN040 OVC048 M01/M04 A3024 RMK AO2 SLP248 T10111039
Loading
Personal Weather Stations






























Interactive Weather Map New forecast layout! Learn more

10-Day Weather Forecast

Advertisements
Track Severe Weather on mobile